sensor_id;sensor_type;location;lat;lon;timestamp;temperature;humidity
14008;DHT22;61651;45.508;12.232;2023-07-24T00:02:51;28.20;99.90
14008;DHT22;61651;45.508;12.232;2023-07-24T00:05:58;28.20;99.90
14008;DHT22;61651;45.508;12.232;2023-07-24T00:09:00;28.20;99.90
14008;DHT22;61651;45.508;12.232;2023-07-24T00:12:03;28.20;99.90
14008;DHT22;61651;45.508;12.232;2023-07-24T00:15:06;28.10;99.90
14008;DHT22;61651;45.508;12.232;2023-07-24T00:18:09;28.10;99.90
14008;DHT22;61651;45.508;12.232;2023-07-24T00:21:11;28.00;99.90
14008;DHT22;61651;45.508;12.232;2023-07-24T00:24:14;28.00;99.90
14008;DHT22;61651;45.508;12.232;2023-07-24T00:27:16;28.00;99.90
14008;DHT22;61651;45.508;12.232;2023-07-24T00:30:18;27.90;99.90
14008;DHT22;61651;45.508;12.232;2023-07-24T00:33:21;27.90;99.90
14008;DHT22;61651;45.508;12.232;2023-07-24T00:36:23;27.90;99.90
14008;DHT22;61651;45.508;12.232;2023-07-24T00:39:25;27.90;99.90
14008;DHT22;61651;45.508;12.232;2023-07-24T00:42:29;27.80;99.90
14008;DHT22;61651;45.508;12.232;2023-07-24T00:45:31;27.80;99.90
14008;DHT22;61651;45.508;12.232;2023-07-24T00:48:34;27.90;99.90
14008;DHT22;61651;45.508;12.232;2023-07-24T00:51:37;27.80;99.90
14008;DHT22;61651;45.508;12.232;2023-07-24T00:54:39;27.80;99.90
14008;DHT22;61651;45.508;12.232;2023-07-24T00:57:42;27.80;99.90
14008;DHT22;61651;45.508;12.232;2023-07-24T01:00:45;27.80;99.90
14008;DHT22;61651;45.508;12.232;2023-07-24T01:03:49;27.80;99.90
14008;DHT22;61651;45.508;12.232;2023-07-24T01:06:51;27.70;99.90
14008;DHT22;61651;45.508;12.232;2023-07-24T01:09:53;27.70;99.90
14008;DHT22;61651;45.508;12.232;2023-07-24T01:12:59;27.70;99.90
14008;DHT22;61651;45.508;12.232;2023-07-24T01:16:09;27.60;99.90
14008;DHT22;61651;45.508;12.232;2023-07-24T01:19:21;27.70;99.90
14008;DHT22;61651;45.508;12.232;2023-07-24T01:22:34;27.60;99.90
14008;DHT22;61651;45.508;12.232;2023-07-24T01:25:51;27.60;99.90
14008;DHT22;61651;45.508;12.232;2023-07-24T01:28:54;27.60;99.90
14008;DHT22;61651;45.508;12.232;2023-07-24T01:31:56;27.50;99.90
14008;DHT22;61651;45.508;12.232;2023-07-24T01:34:58;27.40;99.90
14008;DHT22;61651;45.508;12.232;2023-07-24T01:38:00;27.40;99.90
14008;DHT22;61651;45.508;12.232;2023-07-24T01:41:04;27.40;99.90
14008;DHT22;61651;45.508;12.232;2023-07-24T01:44:07;27.40;99.90
14008;DHT22;61651;45.508;12.232;2023-07-24T01:47:09;27.40;99.90
14008;DHT22;61651;45.508;12.232;2023-07-24T01:50:11;27.30;99.90
14008;DHT22;61651;45.508;12.232;2023-07-24T01:53:13;27.40;99.90
14008;DHT22;61651;45.508;12.232;2023-07-24T01:56:16;27.40;99.90
14008;DHT22;61651;45.508;12.232;2023-07-24T01:59:18;27.30;99.90
14008;DHT22;61651;45.508;12.232;2023-07-24T02:02:20;27.30;99.90
14008;DHT22;61651;45.508;12.232;2023-07-24T02:05:22;27.30;99.90
14008;DHT22;61651;45.508;12.232;2023-07-24T02:08:24;27.30;99.90
14008;DHT22;61651;45.508;12.232;2023-07-24T02:11:28;27.30;99.90
14008;DHT22;61651;45.508;12.232;2023-07-24T02:14:30;27.30;99.90
14008;DHT22;61651;45.508;12.232;2023-07-24T02:17:32;27.30;99.90
14008;DHT22;61651;45.508;12.232;2023-07-24T02:20:34;27.20;99.90
14008;DHT22;61651;45.508;12.232;2023-07-24T02:23:36;27.20;99.90
14008;DHT22;61651;45.508;12.232;2023-07-24T02:26:39;27.20;99.90
14008;DHT22;61651;45.508;12.232;2023-07-24T02:29:41;27.20;99.90
14008;DHT22;61651;45.508;12.232;2023-07-24T02:32:43;27.20;99.90
14008;DHT22;61651;45.508;12.232;2023-07-24T02:35:45;27.10;99.90
14008;DHT22;61651;45.508;12.232;2023-07-24T02:38:47;27.20;99.90
14008;DHT22;61651;45.508;12.232;2023-07-24T02:41:50;27.10;99.90
14008;DHT22;61651;45.508;12.232;2023-07-24T02:44:52;27.10;99.90
14008;DHT22;61651;45.508;12.232;2023-07-24T02:47:54;27.10;99.90
14008;DHT22;61651;45.508;12.232;2023-07-24T02:50:56;27.10;99.90
14008;DHT22;61651;45.508;12.232;2023-07-24T02:53:58;27.10;99.90
14008;DHT22;61651;45.508;12.232;2023-07-24T02:57:02;27.00;99.90
14008;DHT22;61651;45.508;12.232;2023-07-24T03:00:06;27.00;99.90
14008;DHT22;61651;45.508;12.232;2023-07-24T03:03:08;27.00;99.90
14008;DHT22;61651;45.508;12.232;2023-07-24T03:06:10;27.00;99.90
14008;DHT22;61651;45.508;12.232;2023-07-24T03:09:12;27.00;99.90
14008;DHT22;61651;45.508;12.232;2023-07-24T03:12:15;27.00;99.90
14008;DHT22;61651;45.508;12.232;2023-07-24T03:15:18;27.00;99.90
14008;DHT22;61651;45.508;12.232;2023-07-24T03:18:20;26.90;99.90
14008;DHT22;61651;45.508;12.232;2023-07-24T03:21:21;26.80;99.90
14008;DHT22;61651;45.508;12.232;2023-07-24T03:24:23;26.80;99.90
14008;DHT22;61651;45.508;12.232;2023-07-24T03:27:27;26.80;99.90
14008;DHT22;61651;45.508;12.232;2023-07-24T03:30:29;26.80;99.90
14008;DHT22;61651;45.508;12.232;2023-07-24T03:33:31;26.80;99.90
14008;DHT22;61651;45.508;12.232;2023-07-24T03:36:33;26.70;99.90
14008;DHT22;61651;45.508;12.232;2023-07-24T03:39:36;26.70;99.90
14008;DHT22;61651;45.508;12.232;2023-07-24T03:42:39;26.70;99.90
14008;DHT22;61651;45.508;12.232;2023-07-24T03:45:41;26.70;99.90
14008;DHT22;61651;45.508;12.232;2023-07-24T03:48:44;26.60;99.90
14008;DHT22;61651;45.508;12.232;2023-07-24T03:51:46;26.60;99.90
14008;DHT22;61651;45.508;12.232;2023-07-24T03:54:48;26.60;99.90
14008;DHT22;61651;45.508;12.232;2023-07-24T03:57:51;26.60;99.90
14008;DHT22;61651;45.508;12.232;2023-07-24T04:00:53;26.60;99.90
14008;DHT22;61651;45.508;12.232;2023-07-24T04:03:56;26.60;99.90
14008;DHT22;61651;45.508;12.232;2023-07-24T04:06:58;26.60;99.90
14008;DHT22;61651;45.508;12.232;2023-07-24T04:10:00;26.60;99.90
14008;DHT22;61651;45.508;12.232;2023-07-24T04:13:03;26.60;99.90
14008;DHT22;61651;45.508;12.232;2023-07-24T04:16:06;26.60;99.90
14008;DHT22;61651;45.508;12.232;2023-07-24T04:19:07;26.60;99.90
14008;DHT22;61651;45.508;12.232;2023-07-24T04:22:10;26.60;99.90
14008;DHT22;61651;45.508;12.232;2023-07-24T04:25:11;26.60;99.90
14008;DHT22;61651;45.508;12.232;2023-07-24T04:28:15;26.70;99.90
14008;DHT22;61651;45.508;12.232;2023-07-24T04:31:17;26.60;99.90
14008;DHT22;61651;45.508;12.232;2023-07-24T04:34:19;26.60;99.90
14008;DHT22;61651;45.508;12.232;2023-07-24T04:37:21;26.70;99.90
14008;DHT22;61651;45.508;12.232;2023-07-24T04:40:23;26.70;99.90
14008;DHT22;61651;45.508;12.232;2023-07-24T04:43:27;26.80;99.90
14008;DHT22;61651;45.508;12.232;2023-07-24T04:46:29;26.80;99.90
14008;DHT22;61651;45.508;12.232;2023-07-24T04:49:31;26.90;99.90
14008;DHT22;61651;45.508;12.232;2023-07-24T04:52:33;26.80;99.90
14008;DHT22;61651;45.508;12.232;2023-07-24T04:55:35;26.90;99.90
14008;DHT22;61651;45.508;12.232;2023-07-24T04:58:38;26.90;99.90
14008;DHT22;61651;45.508;12.232;2023-07-24T05:01:40;26.90;99.90
14008;DHT22;61651;45.508;12.232;2023-07-24T05:04:43;26.90;99.90
14008;DHT22;61651;45.508;12.232;2023-07-24T05:07:45;27.00;99.90
14008;DHT22;61651;45.508;12.232;2023-07-24T05:10:47;27.00;99.90
14008;DHT22;61651;45.508;12.232;2023-07-24T05:13:51;27.10;99.90
14008;DHT22;61651;45.508;12.232;2023-07-24T05:16:52;27.10;99.90
14008;DHT22;61651;45.508;12.232;2023-07-24T05:19:54;27.10;99.90
14008;DHT22;61651;45.508;12.232;2023-07-24T05:22:56;27.10;99.90
14008;DHT22;61651;45.508;12.232;2023-07-24T05:25:59;27.20;99.90
14008;DHT22;61651;45.508;12.232;2023-07-24T05:29:03;27.30;99.90
14008;DHT22;61651;45.508;12.232;2023-07-24T05:32:05;27.20;99.90
14008;DHT22;61651;45.508;12.232;2023-07-24T05:35:08;27.20;99.90
14008;DHT22;61651;45.508;12.232;2023-07-24T05:38:10;27.20;99.90
14008;DHT22;61651;45.508;12.232;2023-07-24T05:41:12;27.20;99.90
14008;DHT22;61651;45.508;12.232;2023-07-24T05:44:15;27.10;99.90
14008;DHT22;61651;45.508;12.232;2023-07-24T05:47:17;27.10;99.90
14008;DHT22;61651;45.508;12.232;2023-07-24T05:50:19;27.20;99.90
14008;DHT22;61651;45.508;12.232;2023-07-24T05:53:21;27.30;99.90
14008;DHT22;61651;45.508;12.232;2023-07-24T05:56:23;27.30;99.90
14008;DHT22;61651;45.508;12.232;2023-07-24T05:59:27;27.40;99.90
14008;DHT22;61651;45.508;12.232;2023-07-24T06:02:29;27.50;99.90
14008;DHT22;61651;45.508;12.232;2023-07-24T06:05:31;27.50;99.90
14008;DHT22;61651;45.508;12.232;2023-07-24T06:08:33;27.60;99.90
14008;DHT22;61651;45.508;12.232;2023-07-24T06:11:35;27.60;99.90
14008;DHT22;61651;45.508;12.232;2023-07-24T06:14:38;27.70;99.90
14008;DHT22;61651;45.508;12.232;2023-07-24T06:17:40;27.80;99.90
14008;DHT22;61651;45.508;12.232;2023-07-24T06:20:42;27.80;99.90
14008;DHT22;61651;45.508;12.232;2023-07-24T06:23:44;27.80;99.90
14008;DHT22;61651;45.508;12.232;2023-07-24T06:26:46;27.90;99.90
14008;DHT22;61651;45.508;12.232;2023-07-24T06:29:49;28.00;99.90
14008;DHT22;61651;45.508;12.232;2023-07-24T06:32:52;28.20;99.90
14008;DHT22;61651;45.508;12.232;2023-07-24T06:35:53;28.20;99.90
14008;DHT22;61651;45.508;12.232;2023-07-24T06:38:55;28.30;99.90
14008;DHT22;61651;45.508;12.232;2023-07-24T06:41:57;28.30;99.90
14008;DHT22;61651;45.508;12.232;2023-07-24T06:45:01;28.30;99.90
14008;DHT22;61651;45.508;12.232;2023-07-24T06:48:03;28.20;99.90
14008;DHT22;61651;45.508;12.232;2023-07-24T06:51:06;28.30;99.90
14008;DHT22;61651;45.508;12.232;2023-07-24T06:54:08;28.30;99.90
14008;DHT22;61651;45.508;12.232;2023-07-24T06:57:10;28.40;99.90
14008;DHT22;61651;45.508;12.232;2023-07-24T07:00:14;28.40;99.90
14008;DHT22;61651;45.508;12.232;2023-07-24T07:03:16;28.40;99.90
14008;DHT22;61651;45.508;12.232;2023-07-24T07:06:18;28.40;99.90
14008;DHT22;61651;45.508;12.232;2023-07-24T07:09:20;28.50;99.90
14008;DHT22;61651;45.508;12.232;2023-07-24T07:12:22;28.50;99.90
14008;DHT22;61651;45.508;12.232;2023-07-24T07:15:25;28.60;99.90
14008;DHT22;61651;45.508;12.232;2023-07-24T07:18:27;28.60;99.90
14008;DHT22;61651;45.508;12.232;2023-07-24T07:21:29;28.70;99.90
14008;DHT22;61651;45.508;12.232;2023-07-24T07:24:31;28.90;99.90
14008;DHT22;61651;45.508;12.232;2023-07-24T07:27:33;29.00;99.90
14008;DHT22;61651;45.508;12.232;2023-07-24T07:30:37;29.10;99.90
14008;DHT22;61651;45.508;12.232;2023-07-24T07:33:39;29.10;99.90
14008;DHT22;61651;45.508;12.232;2023-07-24T07:36:41;29.10;99.90
14008;DHT22;61651;45.508;12.232;2023-07-24T07:39:43;29.20;99.90
14008;DHT22;61651;45.508;12.232;2023-07-24T07:42:45;29.20;99.90
14008;DHT22;61651;45.508;12.232;2023-07-24T07:45:48;29.20;99.90
14008;DHT22;61651;45.508;12.232;2023-07-24T07:48:50;29.20;99.90
14008;DHT22;61651;45.508;12.232;2023-07-24T07:51:52;29.40;99.90
14008;DHT22;61651;45.508;12.232;2023-07-24T07:54:54;29.60;99.90
14008;DHT22;61651;45.508;12.232;2023-07-24T07:57:56;29.60;99.90
14008;DHT22;61651;45.508;12.232;2023-07-24T08:01:03;29.70;99.90
14008;DHT22;61651;45.508;12.232;2023-07-24T08:04:05;29.90;99.90
14008;DHT22;61651;45.508;12.232;2023-07-24T08:07:07;29.90;99.90
14008;DHT22;61651;45.508;12.232;2023-07-24T08:10:09;30.00;99.90
14008;DHT22;61651;45.508;12.232;2023-07-24T08:13:11;30.00;99.90
14008;DHT22;61651;45.508;12.232;2023-07-24T08:16:15;30.00;99.90
14008;DHT22;61651;45.508;12.232;2023-07-24T08:19:19;30.00;99.90
14008;DHT22;61651;45.508;12.232;2023-07-24T08:22:21;29.90;99.90
14008;DHT22;61651;45.508;12.232;2023-07-24T08:25:23;29.90;99.90
14008;DHT22;61651;45.508;12.232;2023-07-24T08:28:25;30.10;99.90
14008;DHT22;61651;45.508;12.232;2023-07-24T08:31:29;30.30;99.90
14008;DHT22;61651;45.508;12.232;2023-07-24T08:34:31;30.50;99.90
14008;DHT22;61651;45.508;12.232;2023-07-24T08:37:33;30.70;99.90
14008;DHT22;61651;45.508;12.232;2023-07-24T08:40:35;30.80;99.90
14008;DHT22;61651;45.508;12.232;2023-07-24T08:43:39;30.80;99.90
14008;DHT22;61651;45.508;12.232;2023-07-24T08:46:43;30.80;99.90
14008;DHT22;61651;45.508;12.232;2023-07-24T08:49:46;30.70;99.90
14008;DHT22;61651;45.508;12.232;2023-07-24T08:52:49;30.70;99.90
14008;DHT22;61651;45.508;12.232;2023-07-24T08:55:52;30.90;99.90
14008;DHT22;61651;45.508;12.232;2023-07-24T08:58:55;31.00;99.90
14008;DHT22;61651;45.508;12.232;2023-07-24T09:01:58;31.10;99.90
14008;DHT22;61651;45.508;12.232;2023-07-24T09:05:00;30.90;99.90
14008;DHT22;61651;45.508;12.232;2023-07-24T09:08:04;30.70;99.90
14008;DHT22;61651;45.508;12.232;2023-07-24T09:11:07;30.60;99.90
14008;DHT22;61651;45.508;12.232;2023-07-24T09:14:20;30.50;99.90
14008;DHT22;61651;45.508;12.232;2023-07-24T09:17:23;30.40;99.90
14008;DHT22;61651;45.508;12.232;2023-07-24T09:20:25;30.40;99.90
14008;DHT22;61651;45.508;12.232;2023-07-24T09:23:28;30.50;99.90
14008;DHT22;61651;45.508;12.232;2023-07-24T09:26:30;30.60;99.90
14008;DHT22;61651;45.508;12.232;2023-07-24T09:29:33;30.60;99.90
14008;DHT22;61651;45.508;12.232;2023-07-24T09:32:37;30.60;99.90
14008;DHT22;61651;45.508;12.232;2023-07-24T09:35:39;30.60;99.90
14008;DHT22;61651;45.508;12.232;2023-07-24T09:38:41;30.60;99.90
14008;DHT22;61651;45.508;12.232;2023-07-24T09:41:43;30.70;99.90
14008;DHT22;61651;45.508;12.232;2023-07-24T09:44:49;30.70;99.90
14008;DHT22;61651;45.508;12.232;2023-07-24T09:47:52;30.80;99.90
14008;DHT22;61651;45.508;12.232;2023-07-24T09:50:59;30.90;99.90
14008;DHT22;61651;45.508;12.232;2023-07-24T09:54:06;30.90;99.90
14008;DHT22;61651;45.508;12.232;2023-07-24T09:57:13;31.00;99.90
14008;DHT22;61651;45.508;12.232;2023-07-24T10:00:16;31.10;99.90
14008;DHT22;61651;45.508;12.232;2023-07-24T10:03:21;31.10;99.90
14008;DHT22;61651;45.508;12.232;2023-07-24T10:06:24;31.10;99.90
14008;DHT22;61651;45.508;12.232;2023-07-24T10:09:29;31.10;99.90
14008;DHT22;61651;45.508;12.232;2023-07-24T10:12:31;31.20;99.90
14008;DHT22;61651;45.508;12.232;2023-07-24T10:15:33;31.30;99.90
14008;DHT22;61651;45.508;12.232;2023-07-24T10:18:43;31.30;99.90
14008;DHT22;61651;45.508;12.232;2023-07-24T10:21:47;31.10;99.90
14008;DHT22;61651;45.508;12.232;2023-07-24T10:24:49;31.20;99.90
14008;DHT22;61651;45.508;12.232;2023-07-24T10:27:52;31.20;99.90
14008;DHT22;61651;45.508;12.232;2023-07-24T10:30:56;31.30;99.90
14008;DHT22;61651;45.508;12.232;2023-07-24T10:34:05;31.30;99.90
14008;DHT22;61651;45.508;12.232;2023-07-24T10:37:08;31.30;99.90
14008;DHT22;61651;45.508;12.232;2023-07-24T10:40:19;31.40;99.90
14008;DHT22;61651;45.508;12.232;2023-07-24T10:43:22;31.60;99.90
14008;DHT22;61651;45.508;12.232;2023-07-24T10:46:35;31.70;99.90
14008;DHT22;61651;45.508;12.232;2023-07-24T10:49:42;31.80;99.90
14008;DHT22;61651;45.508;12.232;2023-07-24T10:52:49;31.80;99.90
14008;DHT22;61651;45.508;12.232;2023-07-24T10:55:52;31.80;99.90
14008;DHT22;61651;45.508;12.232;2023-07-24T10:58:54;31.70;99.90
14008;DHT22;61651;45.508;12.232;2023-07-24T11:01:56;31.70;99.90
14008;DHT22;61651;45.508;12.232;2023-07-24T11:05:02;31.60;99.90
14008;DHT22;61651;45.508;12.232;2023-07-24T11:08:09;31.60;99.90
14008;DHT22;61651;45.508;12.232;2023-07-24T11:11:15;31.60;99.90
14008;DHT22;61651;45.508;12.232;2023-07-24T11:14:17;31.70;99.90
14008;DHT22;61651;45.508;12.232;2023-07-24T11:17:19;31.70;99.90
14008;DHT22;61651;45.508;12.232;2023-07-24T11:20:23;31.80;99.90
14008;DHT22;61651;45.508;12.232;2023-07-24T11:23:25;31.80;99.90
14008;DHT22;61651;45.508;12.232;2023-07-24T11:26:27;31.70;99.90
14008;DHT22;61651;45.508;12.232;2023-07-24T11:29:30;31.80;99.90
14008;DHT22;61651;45.508;12.232;2023-07-24T11:32:34;31.70;99.90
14008;DHT22;61651;45.508;12.232;2023-07-24T11:35:38;31.70;99.90
14008;DHT22;61651;45.508;12.232;2023-07-24T11:38:41;31.60;99.90
14008;DHT22;61651;45.508;12.232;2023-07-24T11:41:44;31.50;99.90
14008;DHT22;61651;45.508;12.232;2023-07-24T11:44:46;31.50;99.90
14008;DHT22;61651;45.508;12.232;2023-07-24T11:47:49;31.40;99.90
14008;DHT22;61651;45.508;12.232;2023-07-24T11:50:56;31.30;99.90
14008;DHT22;61651;45.508;12.232;2023-07-24T11:54:06;31.20;99.90
14008;DHT22;61651;45.508;12.232;2023-07-24T11:57:14;31.10;99.90
14008;DHT22;61651;45.508;12.232;2023-07-24T12:00:19;31.10;99.90
14008;DHT22;61651;45.508;12.232;2023-07-24T12:03:22;31.00;99.90
14008;DHT22;61651;45.508;12.232;2023-07-24T12:06:25;31.00;99.90
14008;DHT22;61651;45.508;12.232;2023-07-24T12:09:29;31.20;99.90
14008;DHT22;61651;45.508;12.232;2023-07-24T12:12:43;31.40;99.90
14008;DHT22;61651;45.508;12.232;2023-07-24T12:15:46;31.60;99.90
14008;DHT22;61651;45.508;12.232;2023-07-24T12:18:48;31.70;99.90
14008;DHT22;61651;45.508;12.232;2023-07-24T12:21:51;31.80;99.90
14008;DHT22;61651;45.508;12.232;2023-07-24T12:24:53;31.80;99.90
14008;DHT22;61651;45.508;12.232;2023-07-24T12:27:55;31.80;99.90
14008;DHT22;61651;45.508;12.232;2023-07-24T12:30:57;31.80;99.90
14008;DHT22;61651;45.508;12.232;2023-07-24T12:34:00;31.90;99.90
14008;DHT22;61651;45.508;12.232;2023-07-24T12:37:03;31.90;99.90
14008;DHT22;61651;45.508;12.232;2023-07-24T12:40:06;31.90;99.90
14008;DHT22;61651;45.508;12.232;2023-07-24T12:43:09;32.00;99.90
14008;DHT22;61651;45.508;12.232;2023-07-24T12:46:11;32.20;99.90
14008;DHT22;61651;45.508;12.232;2023-07-24T12:49:13;32.50;99.90
14008;DHT22;61651;45.508;12.232;2023-07-24T12:52:16;32.70;99.90
14008;DHT22;61651;45.508;12.232;2023-07-24T12:55:18;32.90;99.90
14008;DHT22;61651;45.508;12.232;2023-07-24T12:58:20;33.00;99.90
14008;DHT22;61651;45.508;12.232;2023-07-24T13:01:22;33.00;99.90
14008;DHT22;61651;45.508;12.232;2023-07-24T13:04:25;33.30;99.90
14008;DHT22;61651;45.508;12.232;2023-07-24T13:07:29;33.40;99.90
14008;DHT22;61651;45.508;12.232;2023-07-24T13:10:31;33.30;99.90
14008;DHT22;61651;45.508;12.232;2023-07-24T13:13:32;33.30;99.90
14008;DHT22;61651;45.508;12.232;2023-07-24T13:16:36;33.40;99.90
14008;DHT22;61651;45.508;12.232;2023-07-24T13:19:38;33.60;99.90
14008;DHT22;61651;45.508;12.232;2023-07-24T13:22:42;33.60;99.90
14008;DHT22;61651;45.508;12.232;2023-07-24T13:25:47;33.70;99.90
14008;DHT22;61651;45.508;12.232;2023-07-24T13:28:50;33.60;99.90
14008;DHT22;61651;45.508;12.232;2023-07-24T13:31:52;33.40;99.90
14008;DHT22;61651;45.508;12.232;2023-07-24T13:34:54;33.20;99.90
14008;DHT22;61651;45.508;12.232;2023-07-24T13:37:58;32.90;99.90
14008;DHT22;61651;45.508;12.232;2023-07-24T13:41:01;32.90;99.90
14008;DHT22;61651;45.508;12.232;2023-07-24T13:44:03;32.70;99.90
14008;DHT22;61651;45.508;12.232;2023-07-24T13:47:05;32.70;99.90
14008;DHT22;61651;45.508;12.232;2023-07-24T13:50:08;32.60;99.90
14008;DHT22;61651;45.508;12.232;2023-07-24T13:53:11;32.50;99.90
14008;DHT22;61651;45.508;12.232;2023-07-24T13:56:13;32.40;99.90
14008;DHT22;61651;45.508;12.232;2023-07-24T13:59:15;32.30;99.90
14008;DHT22;61651;45.508;12.232;2023-07-24T14:02:17;32.20;99.90
14008;DHT22;61651;45.508;12.232;2023-07-24T14:05:20;32.20;99.90
14008;DHT22;61651;45.508;12.232;2023-07-24T14:08:24;32.10;99.90
14008;DHT22;61651;45.508;12.232;2023-07-24T14:11:26;32.00;99.90
14008;DHT22;61651;45.508;12.232;2023-07-24T14:14:29;31.90;99.90
14008;DHT22;61651;45.508;12.232;2023-07-24T14:17:31;31.80;99.90
14008;DHT22;61651;45.508;12.232;2023-07-24T14:20:35;31.80;99.90
14008;DHT22;61651;45.508;12.232;2023-07-24T14:23:39;31.70;99.90
14008;DHT22;61651;45.508;12.232;2023-07-24T14:26:41;31.60;99.90
14008;DHT22;61651;45.508;12.232;2023-07-24T14:29:45;31.50;99.90
14008;DHT22;61651;45.508;12.232;2023-07-24T14:32:47;31.60;99.90
14008;DHT22;61651;45.508;12.232;2023-07-24T14:35:50;31.60;99.90
14008;DHT22;61651;45.508;12.232;2023-07-24T14:38:54;31.50;99.90
14008;DHT22;61651;45.508;12.232;2023-07-24T14:41:56;31.40;99.90
14008;DHT22;61651;45.508;12.232;2023-07-24T14:44:57;31.50;99.90
14008;DHT22;61651;45.508;12.232;2023-07-24T14:48:03;31.50;99.90
14008;DHT22;61651;45.508;12.232;2023-07-24T14:51:05;31.40;99.90
14008;DHT22;61651;45.508;12.232;2023-07-24T14:54:08;31.50;99.90
14008;DHT22;61651;45.508;12.232;2023-07-24T14:57:11;32.00;99.90
14008;DHT22;61651;45.508;12.232;2023-07-24T15:00:14;32.50;99.90
14008;DHT22;61651;45.508;12.232;2023-07-24T15:03:16;33.10;99.90
14008;DHT22;61651;45.508;12.232;2023-07-24T15:06:19;33.50;99.90
14008;DHT22;61651;45.508;12.232;2023-07-24T15:09:22;33.60;99.90
14008;DHT22;61651;45.508;12.232;2023-07-24T15:12:24;33.40;99.90
14008;DHT22;61651;45.508;12.232;2023-07-24T15:15:26;33.60;99.90
14008;DHT22;61651;45.508;12.232;2023-07-24T15:18:29;33.70;99.90
14008;DHT22;61651;45.508;12.232;2023-07-24T15:21:31;33.90;99.90
14008;DHT22;61651;45.508;12.232;2023-07-24T15:24:34;34.20;99.90
14008;DHT22;61651;45.508;12.232;2023-07-24T15:27:36;34.50;99.90
14008;DHT22;61651;45.508;12.232;2023-07-24T15:30:38;34.70;99.90
14008;DHT22;61651;45.508;12.232;2023-07-24T15:33:40;34.80;99.90
14008;DHT22;61651;45.508;12.232;2023-07-24T15:36:42;34.90;99.90
14008;DHT22;61651;45.508;12.232;2023-07-24T15:39:46;35.00;99.90
14008;DHT22;61651;45.508;12.232;2023-07-24T15:42:48;34.90;99.90
14008;DHT22;61651;45.508;12.232;2023-07-24T15:45:50;34.90;99.90
14008;DHT22;61651;45.508;12.232;2023-07-24T15:48:53;34.80;99.90
14008;DHT22;61651;45.508;12.232;2023-07-24T15:51:55;34.60;99.90
14008;DHT22;61651;45.508;12.232;2023-07-24T15:54:58;34.50;99.90
14008;DHT22;61651;45.508;12.232;2023-07-24T15:58:01;34.40;99.90
14008;DHT22;61651;45.508;12.232;2023-07-24T16:01:03;34.30;99.90
14008;DHT22;61651;45.508;12.232;2023-07-24T16:04:05;34.30;99.90
14008;DHT22;61651;45.508;12.232;2023-07-24T16:07:07;34.20;99.90
14008;DHT22;61651;45.508;12.232;2023-07-24T16:10:10;34.10;99.90
14008;DHT22;61651;45.508;12.232;2023-07-24T16:13:13;34.00;99.90
14008;DHT22;61651;45.508;12.232;2023-07-24T16:16:15;33.90;99.90
14008;DHT22;61651;45.508;12.232;2023-07-24T16:19:18;33.90;99.90
14008;DHT22;61651;45.508;12.232;2023-07-24T16:22:20;33.80;99.90
14008;DHT22;61651;45.508;12.232;2023-07-24T16:25:23;33.60;99.90
14008;DHT22;61651;45.508;12.232;2023-07-24T16:28:25;33.50;99.90
14008;DHT22;61651;45.508;12.232;2023-07-24T16:31:27;33.30;99.90
14008;DHT22;61651;45.508;12.232;2023-07-24T16:34:29;33.20;99.90
14008;DHT22;61651;45.508;12.232;2023-07-24T16:37:36;33.20;99.90
14008;DHT22;61651;45.508;12.232;2023-07-24T16:40:39;33.10;99.90
14008;DHT22;61651;45.508;12.232;2023-07-24T16:43:42;33.00;99.90
14008;DHT22;61651;45.508;12.232;2023-07-24T16:46:44;32.80;99.90
14008;DHT22;61651;45.508;12.232;2023-07-24T16:49:46;32.80;99.90
14008;DHT22;61651;45.508;12.232;2023-07-24T16:52:48;32.70;99.90
14008;DHT22;61651;45.508;12.232;2023-07-24T16:55:52;32.60;99.90
14008;DHT22;61651;45.508;12.232;2023-07-24T16:58:54;32.40;99.90
14008;DHT22;61651;45.508;12.232;2023-07-24T17:01:56;32.40;99.90
14008;DHT22;61651;45.508;12.232;2023-07-24T17:04:58;32.30;99.90
14008;DHT22;61651;45.508;12.232;2023-07-24T17:08:00;32.20;99.90
14008;DHT22;61651;45.508;12.232;2023-07-24T17:11:03;32.10;99.90
14008;DHT22;61651;45.508;12.232;2023-07-24T17:14:05;31.90;99.90
14008;DHT22;61651;45.508;12.232;2023-07-24T17:17:07;31.90;99.90
14008;DHT22;61651;45.508;12.232;2023-07-24T17:20:10;31.80;99.90
14008;DHT22;61651;45.508;12.232;2023-07-24T17:23:12;31.60;99.90
14008;DHT22;61651;45.508;12.232;2023-07-24T17:26:15;31.60;99.90
14008;DHT22;61651;45.508;12.232;2023-07-24T17:29:17;31.50;99.90
14008;DHT22;61651;45.508;12.232;2023-07-24T17:32:19;31.40;99.90
14008;DHT22;61651;45.508;12.232;2023-07-24T17:35:22;31.30;99.90
14008;DHT22;61651;45.508;12.232;2023-07-24T17:38:24;31.20;99.90
14008;DHT22;61651;45.508;12.232;2023-07-24T17:41:28;31.20;99.90
14008;DHT22;61651;45.508;12.232;2023-07-24T17:44:30;31.10;99.90
14008;DHT22;61651;45.508;12.232;2023-07-24T17:47:32;31.00;99.90
14008;DHT22;61651;45.508;12.232;2023-07-24T17:50:35;31.00;99.90
14008;DHT22;61651;45.508;12.232;2023-07-24T17:53:37;30.90;99.90
14008;DHT22;61651;45.508;12.232;2023-07-24T17:56:41;30.90;99.90
14008;DHT22;61651;45.508;12.232;2023-07-24T17:59:43;30.80;99.90
14008;DHT22;61651;45.508;12.232;2023-07-24T18:02:45;30.70;99.90
14008;DHT22;61651;45.508;12.232;2023-07-24T18:05:47;30.60;99.90
14008;DHT22;61651;45.508;12.232;2023-07-24T18:08:49;30.50;99.90
14008;DHT22;61651;45.508;12.232;2023-07-24T18:11:52;30.50;99.90
14008;DHT22;61651;45.508;12.232;2023-07-24T18:14:54;30.50;99.90
14008;DHT22;61651;45.508;12.232;2023-07-24T18:17:56;30.40;99.90
14008;DHT22;61651;45.508;12.232;2023-07-24T18:20:58;30.30;99.90
14008;DHT22;61651;45.508;12.232;2023-07-24T18:24:03;30.20;99.90
14008;DHT22;61651;45.508;12.232;2023-07-24T18:27:07;30.20;99.90
14008;DHT22;61651;45.508;12.232;2023-07-24T18:30:09;30.10;99.90
14008;DHT22;61651;45.508;12.232;2023-07-24T18:33:11;30.10;99.90
14008;DHT22;61651;45.508;12.232;2023-07-24T18:36:13;30.00;99.90
14008;DHT22;61651;45.508;12.232;2023-07-24T18:39:15;30.00;99.90
14008;DHT22;61651;45.508;12.232;2023-07-24T18:42:19;29.90;99.90
14008;DHT22;61651;45.508;12.232;2023-07-24T18:45:21;29.80;99.90
14008;DHT22;61651;45.508;12.232;2023-07-24T18:48:23;29.80;99.90
14008;DHT22;61651;45.508;12.232;2023-07-24T18:51:26;29.70;99.90
14008;DHT22;61651;45.508;12.232;2023-07-24T18:54:28;29.60;99.90
14008;DHT22;61651;45.508;12.232;2023-07-24T18:57:32;29.60;99.90